Aeroboteco Virtual Airlines! Uma nuvem a frente.



 INFORMAÇÕES METEOROLÓGICAS
METAR FOR EBOS
ADDS - METARS form results

(2107 UTC 20 May 2022)
Data provider http://aviationweather.gov/metar/data/
 
METAR text: EBOS 202050Z 22009KT 9999 FEW015 10/09 Q1020 NOSIG
Conditions at: EBOS (OOSTENDE AIRPORT, BE) observed 2050 UTC 20 May 2022
Temperature: 10.0°C (50°F)
Dewpoint: 9.0°C (48°F) [RH = 93%]
Pressure (altimeter): 30.12 inches Hg (1020.0 mb)
Winds: from the SW (220 degrees) at 10 MPH (9 knots; 4.6 m/s)
Visibility: 6 or more miles (10+ km)
Ceiling: at least 12,000 feet AGL
Clouds: few clouds at 1500 feet AGL
Weather: no significant weather observed at this time

METAR text: EBOS 202020Z 22009KT 9999 FEW015 11/09 Q1020 NOSIG
Conditions at: EBOS (OOSTENDE AIRPORT, BE) observed 2020 UTC 20 May 2022
Temperature: 11.0°C (52°F)
Dewpoint: 9.0°C (48°F) [RH = 87%]
Pressure (altimeter): 30.12 inches Hg (1020.0 mb)
Winds: from the SW (220 degrees) at 10 MPH (9 knots; 4.6 m/s)
Visibility: 6 or more miles (10+ km)
Ceiling: at least 12,000 feet AGL
Clouds: few clouds at 1500 feet AGL
Weather: no significant weather observed at this time

Forecast for: EBOS (OOSTENDE AIRPORT, BE)
Text: TAF EBOS 201702Z 2018/2124 25012KT 9999 SCT015
Forecast period: 1800 UTC 20 May 2022 to 0000 UTC 22 May 2022
Forecast type: FROM: standard forecast or significant change
Winds: from the WSW (250 degrees) at 14 MPH (12 knots; 6.2 m/s)
Visibility: 6 or more miles (10+ km)
Ceiling: at least 12,000 feet AGL
Clouds: scattered clouds at 1500 feet AGL
Weather: no significant weather forecast for this period
Text: PROB30
Forecast period: 2200 UTC 20 May 2022 to 0400 UTC 21 May 2022
Forecast type: TEMPORARY: The following changes expected for less than half the time period
Winds: from the WSW (250 degrees) at 17 MPH (15 knots; 7.7 m/s)
gusting to 29 MPH (25 knots; 12.9 m/s)
Visibility: missing
Ceiling: 1000 feet AGL
Clouds: broken clouds at 1000 feet AGL
Weather: no significant weather forecast for this period

 MAPA DO AEROPORTO

 INFORMAÇÕES DA PISTA
Pista 08 Tamanho da pista 10499 ft Largura da pista 148 ft
Elevação da pista 15 ft Ranhura da pista 985 ft Proa da pista 77
Pista 26 Tamanho da pista 10499 ft Largura da pista 148 ft
Elevação da pista 13 ft Ranhura da pista 1362 ft Proa da pista 257
Pista 14 Tamanho da pista 2057 ft Largura da pista 148 ft
Elevação da pista 13 ft Ranhura da pista 0 ft Proa da pista 137
Pista 32 Tamanho da pista 2057 ft Largura da pista 148 ft
Elevação da pista 13 ft Ranhura da pista 0 ft Proa da pista 317

 FREQUÊNCIAS DO AEROPORTO
Tipo APP Nome APP Frequência 120.6 MHZ
Tipo GND Nome GND Frequência 121.975 MHZ
Tipo TWR Nome TWR Frequência 118.175 MHZ
Tipo ATIS Nome ATIS Frequência 126.12 MHZ

 AUXÍLIOS DE NAVEGAÇÃO PRÓXIMOS AO AEROPORTO
Tipo NDB Nome Oostende Frequência 400 KHZ